createdAt,value
2023-05-09T00:00:20.504Z,102055.64
2023-05-09T00:00:50.911Z,102052.95
2023-05-09T00:01:21.344Z,102057.80
2023-05-09T00:01:51.803Z,102053.91
2023-05-09T00:02:22.316Z,102054.94
2023-05-09T00:02:52.782Z,102054.97
2023-05-09T00:03:23.210Z,102055.11
2023-05-09T00:03:53.653Z,102053.94
2023-05-09T00:04:24.108Z,102057.52
2023-05-09T00:04:54.514Z,102055.16
2023-05-09T00:05:24.940Z,102059.23
2023-05-09T00:05:55.369Z,102055.50
2023-05-09T00:06:25.794Z,102059.00
2023-05-09T00:06:56.202Z,102058.00
2023-05-09T00:07:26.633Z,102060.70
2023-05-09T00:07:57.064Z,102056.12
2023-05-09T00:08:27.480Z,102059.57
2023-05-09T00:08:57.922Z,102054.17
2023-05-09T00:09:28.340Z,102056.70
2023-05-09T00:09:58.778Z,102057.98
2023-05-09T00:10:29.190Z,102056.12
2023-05-09T00:10:59.621Z,102060.31
2023-05-09T00:11:30.048Z,102059.75
2023-05-09T00:12:00.497Z,102055.86
2023-05-09T00:12:30.919Z,102058.09
2023-05-09T00:13:01.388Z,102054.14
2023-05-09T00:13:31.790Z,102057.36
2023-05-09T00:14:02.220Z,102056.72
2023-05-09T00:14:32.640Z,102056.72
2023-05-09T00:15:03.182Z,102053.69
2023-05-09T00:15:33.581Z,102053.12
2023-05-09T00:16:04.008Z,102053.47
2023-05-09T00:16:34.438Z,102055.96
2023-05-09T00:17:04.834Z,102057.30
2023-05-09T00:17:35.309Z,102057.12
2023-05-09T00:18:05.743Z,102054.97
2023-05-09T00:18:36.144Z,102054.31
2023-05-09T00:19:06.567Z,102052.80
2023-05-09T00:19:37.006Z,102058.22
2023-05-09T00:20:07.417Z,102059.95
2023-05-09T00:20:37.844Z,102062.02
2023-05-09T00:21:08.261Z,102062.17
2023-05-09T00:21:38.859Z,102059.59
2023-05-09T00:22:09.280Z,102061.77
2023-05-09T00:22:39.697Z,102065.31
2023-05-09T00:23:10.157Z,102062.97
2023-05-09T00:23:40.573Z,102062.64
2023-05-09T00:24:11.003Z,102064.70
2023-05-09T00:24:41.438Z,102068.27
2023-05-09T00:25:12.072Z,102064.02
2023-05-09T00:25:42.618Z,102057.91
2023-05-09T00:26:13.056Z,102060.39
2023-05-09T00:26:43.486Z,102060.05
2023-05-09T00:27:13.904Z,102062.75
2023-05-09T00:27:44.337Z,102061.35
2023-05-09T00:28:14.774Z,102060.51
2023-05-09T00:28:45.194Z,102063.97
2023-05-09T00:29:15.617Z,102061.95
2023-05-09T00:29:46.038Z,102067.72
2023-05-09T00:30:16.596Z,102067.05
2023-05-09T00:30:46.970Z,102060.34
2023-05-09T00:31:17.388Z,102063.59
2023-05-09T00:31:47.837Z,102069.14
2023-05-09T00:32:18.323Z,102062.88
2023-05-09T00:32:48.759Z,102066.75
2023-05-09T00:33:19.153Z,102065.42
2023-05-09T00:33:49.573Z,102064.44
2023-05-09T00:34:19.998Z,102067.69
2023-05-09T00:34:50.423Z,102070.22
2023-05-09T00:35:20.849Z,102062.61
2023-05-09T00:35:51.271Z,102072.24
2023-05-09T00:36:21.704Z,102066.84
2023-05-09T00:36:52.129Z,102069.71
2023-05-09T00:37:22.548Z,102066.17
2023-05-09T00:37:52.984Z,102069.20
2023-05-09T00:38:23.406Z,102065.93
2023-05-09T00:38:53.844Z,102068.78
2023-05-09T00:39:24.251Z,102068.11
2023-05-09T00:39:54.679Z,102065.42
2023-05-09T00:40:25.114Z,102069.66
2023-05-09T00:40:55.549Z,102067.98
2023-05-09T00:41:25.953Z,102067.14
2023-05-09T00:41:56.392Z,102060.55
2023-05-09T00:42:26.822Z,102065.96
2023-05-09T00:42:57.387Z,102070.37
2023-05-09T00:43:27.802Z,102073.64
2023-05-09T00:43:58.226Z,102078.91
2023-05-09T00:44:28.661Z,102069.64
2023-05-09T00:44:59.093Z,102077.09
2023-05-09T00:45:30.022Z,102067.73
2023-05-09T00:46:00.446Z,102064.00
2023-05-09T00:46:30.908Z,102061.58
2023-05-09T00:47:01.294Z,102062.80
2023-05-09T00:47:31.726Z,102064.80
2023-05-09T00:48:02.176Z,102057.87
2023-05-09T00:48:32.580Z,102057.40
2023-05-09T00:49:03.004Z,102051.52
2023-05-09T00:49:33.438Z,102058.62
2023-05-09T00:50:03.863Z,102059.68
2023-05-09T00:50:34.281Z,102062.67
2023-05-09T00:51:04.712Z,102055.55
2023-05-09T00:51:35.127Z,102061.96
2023-05-09T00:52:05.606Z,102055.61
2023-05-09T00:52:36.023Z,102057.14
2023-05-09T00:53:06.415Z,102057.81
2023-05-09T00:53:36.835Z,102053.83
2023-05-09T00:54:09.119Z,102060.86
2023-05-09T00:54:39.663Z,102058.15
2023-05-09T00:55:10.090Z,102053.75
2023-05-09T00:55:40.520Z,102049.56
2023-05-09T00:56:10.950Z,102048.77
2023-05-09T00:56:41.374Z,102051.80
2023-05-09T00:57:11.802Z,102052.44
2023-05-09T00:57:42.232Z,102047.67
2023-05-09T00:58:12.648Z,102047.43
2023-05-09T00:58:43.069Z,102047.41
2023-05-09T00:59:13.656Z,102049.23
2023-05-09T00:59:44.366Z,102046.78
2023-05-09T01:00:14.816Z,102045.47
2023-05-09T01:00:45.345Z,102044.92
2023-05-09T01:01:15.722Z,102044.43
2023-05-09T01:01:46.305Z,102046.81
2023-05-09T01:02:16.762Z,102045.45
2023-05-09T01:02:47.263Z,102046.75
2023-05-09T01:03:17.795Z,102043.02
2023-05-09T01:03:48.304Z,102041.32
2023-05-09T01:04:18.705Z,102042.83
2023-05-09T01:04:49.136Z,102041.04
2023-05-09T01:05:19.555Z,102043.23
2023-05-09T01:05:49.989Z,102036.62
2023-05-09T01:06:20.425Z,102040.12
2023-05-09T01:06:50.890Z,102039.06
2023-05-09T01:07:21.273Z,102033.35
2023-05-09T01:07:51.685Z,102035.86
2023-05-09T01:08:22.136Z,102036.95
2023-05-09T01:08:52.559Z,102036.53
2023-05-09T01:09:22.988Z,102032.84
2023-05-09T01:09:53.400Z,102033.98
2023-05-09T01:10:23.828Z,102032.58
2023-05-09T01:10:54.256Z,102034.12
2023-05-09T01:11:24.685Z,102032.31
2023-05-09T01:11:55.123Z,102034.00
2023-05-09T01:12:25.536Z,102028.08
2023-05-09T01:12:55.988Z,102030.36
2023-05-09T01:13:26.465Z,102026.31
2023-05-09T01:13:56.862Z,102030.25
2023-05-09T01:14:27.295Z,102030.45
2023-05-09T01:14:57.712Z,102030.44
2023-05-09T01:15:28.138Z,102026.55
2023-05-09T01:15:58.712Z,102029.38
2023-05-09T01:16:29.159Z,102027.55
2023-05-09T01:16:59.587Z,102032.01
2023-05-09T01:17:30.020Z,102031.05
2023-05-09T01:18:00.470Z,102029.20
2023-05-09T01:18:30.917Z,102036.39
2023-05-09T01:19:01.336Z,102030.83
2023-05-09T01:19:31.768Z,102032.58
2023-05-09T01:20:02.187Z,102031.91
2023-05-09T01:20:32.608Z,102029.20
2023-05-09T01:21:03.050Z,102034.38
2023-05-09T01:21:33.482Z,102034.34
2023-05-09T01:22:03.905Z,102032.12
2023-05-09T01:22:34.330Z,102031.94
2023-05-09T01:23:04.752Z,102035.70
2023-05-09T01:23:35.174Z,102034.08
2023-05-09T01:24:05.629Z,102037.64
2023-05-09T01:24:36.015Z,102036.28
2023-05-09T01:25:06.433Z,102037.30
2023-05-09T01:25:36.865Z,102036.97
2023-05-09T01:26:07.313Z,102036.28
2023-05-09T01:26:37.737Z,102036.73
2023-05-09T01:27:08.160Z,102039.06
2023-05-09T01:27:38.579Z,102037.69
2023-05-09T01:28:09.001Z,102036.80
2023-05-09T01:28:39.426Z,102033.64
2023-05-09T01:29:09.846Z,102034.52
2023-05-09T01:29:40.279Z,102036.67
2023-05-09T01:30:10.712Z,102031.88
2023-05-09T01:30:41.128Z,102032.59
2023-05-09T01:31:11.676Z,102033.12
2023-05-09T01:31:42.167Z,102027.06
2023-05-09T01:32:12.595Z,102031.01
2023-05-09T01:32:43.034Z,102028.03
2023-05-09T01:33:13.461Z,102027.23
2023-05-09T01:33:43.879Z,102025.86
2023-05-09T01:34:14.325Z,102024.53
2023-05-09T01:34:44.755Z,102029.61
2023-05-09T01:35:15.391Z,102023.71
2023-05-09T01:35:45.984Z,102025.92
2023-05-09T01:36:16.405Z,102027.56
2023-05-09T01:36:46.852Z,102020.86
2023-05-09T01:37:17.259Z,102026.72
2023-05-09T01:37:47.694Z,102024.97
2023-05-09T01:38:18.102Z,102023.76
2023-05-09T01:38:48.527Z,102021.95
2023-05-09T01:39:18.968Z,102019.92
2023-05-09T01:39:49.389Z,102022.14
2023-05-09T01:40:19.810Z,102024.87
2023-05-09T01:40:50.241Z,102021.79
2023-05-09T01:41:20.669Z,102021.97
2023-05-09T01:41:51.087Z,102021.30
2023-05-09T01:42:21.523Z,102015.22
2023-05-09T01:42:51.929Z,102017.90
2023-05-09T01:43:22.349Z,102020.89
2023-05-09T01:43:52.797Z,102021.73
2023-05-09T01:44:23.197Z,102018.66
2023-05-09T01:44:53.653Z,102021.72
2023-05-09T01:45:24.081Z,102017.23
2023-05-09T01:45:54.545Z,102016.94
2023-05-09T01:46:25.111Z,102017.26
2023-05-09T01:46:55.570Z,102014.68
2023-05-09T01:47:26.014Z,102018.20
2023-05-09T01:47:56.419Z,102019.91
2023-05-09T01:48:26.847Z,102017.74
2023-05-09T01:48:57.255Z,102015.53
2023-05-09T01:49:27.678Z,102016.66
2023-05-09T01:49:58.115Z,102018.36
2023-05-09T01:50:28.557Z,102013.69
2023-05-09T01:50:58.968Z,102012.00
2023-05-09T01:51:29.393Z,102017.69
2023-05-09T01:51:59.823Z,102015.33
2023-05-09T01:52:30.247Z,102014.98
2023-05-09T01:53:00.669Z,102013.33
2023-05-09T01:53:31.102Z,102019.62
2023-05-09T01:54:01.533Z,102016.48
2023-05-09T01:54:31.961Z,102017.07
2023-05-09T01:55:02.467Z,102016.38
2023-05-09T01:55:32.850Z,102018.70
2023-05-09T01:56:03.275Z,102017.06
2023-05-09T01:56:33.693Z,102020.62
2023-05-09T01:57:04.125Z,102019.09
2023-05-09T01:57:34.545Z,102020.61
2023-05-09T01:58:04.972Z,102020.61
2023-05-09T01:58:35.394Z,102024.53
2023-05-09T01:59:05.831Z,102021.53
2023-05-09T01:59:36.254Z,102025.75
2023-05-09T02:00:06.679Z,102022.89
2023-05-09T02:00:37.144Z,102017.67
2023-05-09T02:01:07.612Z,102018.00
2023-05-09T02:01:38.136Z,102020.82
2023-05-09T02:02:08.556Z,102020.10
2023-05-09T02:02:39.175Z,102018.39
2023-05-09T02:03:09.642Z,102027.94
2023-05-09T02:03:40.039Z,102023.89
2023-05-09T02:04:10.476Z,102019.52
2023-05-09T02:04:40.911Z,102024.27
2023-05-09T02:05:11.365Z,102025.64
2023-05-09T02:05:41.764Z,102019.27
2023-05-09T02:06:12.184Z,102023.95
2023-05-09T02:06:42.611Z,102019.61
2023-05-09T02:07:13.042Z,102023.30
2023-05-09T02:07:43.463Z,102022.29
2023-05-09T02:08:13.879Z,102022.91
2023-05-09T02:08:44.332Z,102019.33
2023-05-09T02:09:14.768Z,102024.05
2023-05-09T02:09:45.184Z,102021.45
2023-05-09T02:10:15.606Z,102018.59
2023-05-09T02:10:46.035Z,102022.70
2023-05-09T02:11:16.449Z,102020.51
2023-05-09T02:11:46.884Z,102025.94
2023-05-09T02:12:17.300Z,102019.44
2023-05-09T02:12:47.795Z,102025.16
2023-05-09T02:13:18.280Z,102020.55
2023-05-09T02:13:48.750Z,102023.53
2023-05-09T02:14:19.201Z,102024.03
2023-05-09T02:14:49.620Z,102020.85
2023-05-09T02:15:20.042Z,102019.36
2023-05-09T02:15:50.467Z,102019.50
2023-05-09T02:16:21.058Z,102024.02
2023-05-09T02:16:51.687Z,102023.09
2023-05-09T02:17:22.086Z,102021.95
2023-05-09T02:17:52.539Z,102019.26
2023-05-09T02:18:22.938Z,102020.61
2023-05-09T02:18:53.386Z,102019.77
2023-05-09T02:19:23.805Z,102021.09
2023-05-09T02:19:54.242Z,102019.03
2023-05-09T02:20:24.673Z,102022.05
2023-05-09T02:20:55.133Z,102018.86
2023-05-09T02:21:26.741Z,102016.09
2023-05-09T02:21:58.291Z,102013.41
2023-05-09T02:22:28.722Z,102014.06
2023-05-09T02:22:59.139Z,102018.67
2023-05-09T02:23:29.562Z,102016.45
2023-05-09T02:24:00.006Z,102014.74
2023-05-09T02:24:30.418Z,102015.47
2023-05-09T02:25:00.843Z,102020.06
2023-05-09T02:25:31.262Z,102013.84
2023-05-09T02:26:01.690Z,102017.05
2023-05-09T02:26:32.110Z,102017.52
2023-05-09T02:27:02.569Z,102019.32
2023-05-09T02:27:32.955Z,102015.22
2023-05-09T02:28:03.376Z,102017.08
2023-05-09T02:28:33.818Z,102018.01
2023-05-09T02:29:04.236Z,102020.70
2023-05-09T02:29:34.653Z,102018.70
2023-05-09T02:30:05.080Z,102023.59
2023-05-09T02:30:35.507Z,102020.22
2023-05-09T02:31:05.930Z,102020.09
2023-05-09T02:31:36.512Z,102019.06
2023-05-09T02:32:07.113Z,102017.00
2023-05-09T02:32:37.682Z,102021.45
2023-05-09T02:33:08.108Z,102020.52
2023-05-09T02:33:38.559Z,102023.56
2023-05-09T02:34:08.943Z,102023.23
2023-05-09T02:34:39.363Z,102023.08
2023-05-09T02:35:09.787Z,102023.61
2023-05-09T02:35:40.214Z,102027.34
2023-05-09T02:36:10.670Z,102023.40
2023-05-09T02:36:41.084Z,102023.67
2023-05-09T02:37:11.495Z,102022.48
2023-05-09T02:37:41.914Z,102021.79
2023-05-09T02:38:12.379Z,102022.12
2023-05-09T02:38:42.774Z,102023.81
2023-05-09T02:39:13.214Z,102028.54
2023-05-09T02:39:43.636Z,102021.33
2023-05-09T02:40:14.056Z,102025.95
2023-05-09T02:40:44.530Z,102021.55
2023-05-09T02:41:14.927Z,102019.89
2023-05-09T02:41:45.341Z,102021.25
2023-05-09T02:42:15.767Z,102022.79
2023-05-09T02:42:46.207Z,102024.12
2023-05-09T02:43:16.625Z,102024.27
2023-05-09T02:43:47.047Z,102027.44
2023-05-09T02:44:17.480Z,102021.90
2023-05-09T02:44:47.894Z,102022.26
2023-05-09T02:45:18.317Z,102021.08
2023-05-09T02:45:48.757Z,102022.59
2023-05-09T02:46:19.199Z,102019.19
2023-05-09T02:46:49.619Z,102021.20
2023-05-09T02:47:20.155Z,102019.09
2023-05-09T02:47:50.603Z,102018.44
2023-05-09T02:48:21.004Z,102023.14
2023-05-09T02:48:51.439Z,102022.47
2023-05-09T02:49:31.339Z,102017.75
2023-05-09T02:49:57.174Z,102019.95
2023-05-09T02:50:27.636Z,102014.94
2023-05-09T02:50:58.048Z,102015.94
2023-05-09T02:51:28.487Z,102016.77
2023-05-09T02:51:58.911Z,102013.53
2023-05-09T02:52:29.347Z,102013.69
2023-05-09T02:52:59.772Z,102012.18
2023-05-09T02:53:30.200Z,102014.75
2023-05-09T02:54:00.663Z,102015.42
2023-05-09T02:54:31.070Z,102017.23
2023-05-09T02:55:01.495Z,102013.91
2023-05-09T02:55:31.915Z,102014.74
2023-05-09T02:56:02.335Z,102015.38
2023-05-09T02:56:32.759Z,102019.65
2023-05-09T02:57:03.212Z,102020.83
2023-05-09T02:57:33.620Z,102016.16
2023-05-09T02:58:13.562Z,102018.20
2023-05-09T02:58:39.358Z,102018.20
2023-05-09T02:59:09.785Z,102017.23
2023-05-09T02:59:40.203Z,102015.28
2023-05-09T03:00:10.627Z,102014.95
2023-05-09T03:00:41.046Z,102018.31
2023-05-09T03:01:11.486Z,102020.52
2023-05-09T03:01:41.913Z,102021.52
2023-05-09T03:02:12.342Z,102018.50
2023-05-09T03:02:42.947Z,102017.14
2023-05-09T03:03:13.434Z,102018.99
2023-05-09T03:03:43.920Z,102016.36
2023-05-09T03:04:14.463Z,102014.86
2023-05-09T03:04:44.874Z,102017.25
2023-05-09T03:05:15.589Z,102021.62
2023-05-09T03:05:46.061Z,102017.24
2023-05-09T03:06:16.489Z,102017.56
2023-05-09T03:06:46.924Z,102018.19
2023-05-09T03:07:17.350Z,102013.78
2023-05-09T03:07:47.766Z,102014.12
2023-05-09T03:08:18.194Z,102015.78
2023-05-09T03:08:48.629Z,102009.52
2023-05-09T03:09:19.054Z,102015.28
2023-05-09T03:09:49.482Z,102009.45
2023-05-09T03:10:19.903Z,102011.16
2023-05-09T03:10:50.328Z,102012.98
2023-05-09T03:11:20.745Z,102011.95
2023-05-09T03:11:51.174Z,102009.77
2023-05-09T03:12:21.630Z,102009.72
2023-05-09T03:12:52.085Z,102010.69
2023-05-09T03:13:22.514Z,102009.38
2023-05-09T03:13:53.068Z,102007.55
2023-05-09T03:14:23.498Z,102005.91
2023-05-09T03:14:53.920Z,102003.92
2023-05-09T03:15:24.343Z,102009.97
2023-05-09T03:15:54.831Z,102008.49
2023-05-09T03:16:25.244Z,101997.52
2023-05-09T03:16:55.712Z,102001.44
2023-05-09T03:17:26.189Z,102001.12
2023-05-09T03:17:56.754Z,102002.43
2023-05-09T03:18:27.217Z,102000.89
2023-05-09T03:18:57.641Z,101999.55
2023-05-09T03:19:28.060Z,101999.19
2023-05-09T03:19:58.484Z,101994.80
2023-05-09T03:20:28.907Z,101996.60
2023-05-09T03:20:59.335Z,101997.77
2023-05-09T03:21:29.808Z,101999.09
2023-05-09T03:22:00.224Z,101996.08
2023-05-09T03:22:30.638Z,101998.16
2023-05-09T03:23:01.066Z,101998.36
2023-05-09T03:23:31.489Z,101996.19
2023-05-09T03:24:01.960Z,102000.61
2023-05-09T03:24:32.354Z,101996.25
2023-05-09T03:25:02.790Z,102000.61
2023-05-09T03:25:33.203Z,102000.95
2023-05-09T03:26:03.628Z,101997.70
2023-05-09T03:26:34.062Z,101999.20
2023-05-09T03:27:04.482Z,102003.09
2023-05-09T03:27:34.908Z,102003.76
2023-05-09T03:28:05.344Z,102001.24
2023-05-09T03:28:35.793Z,101997.88
2023-05-09T03:29:06.328Z,102000.73
2023-05-09T03:29:36.713Z,101999.16
2023-05-09T03:30:07.127Z,101996.44
2023-05-09T03:30:37.550Z,102000.99
2023-05-09T03:31:07.975Z,101997.65
2023-05-09T03:31:38.426Z,101999.53
2023-05-09T03:32:08.831Z,101998.87
2023-05-09T03:32:39.304Z,102001.52
2023-05-09T03:33:09.902Z,101996.12
2023-05-09T03:33:40.287Z,101997.16
2023-05-09T03:34:10.709Z,101996.80
2023-05-09T03:34:41.138Z,102001.86
2023-05-09T03:35:11.599Z,101993.43
2023-05-09T03:35:42.062Z,101996.44
2023-05-09T03:36:12.497Z,101996.00
2023-05-09T03:36:42.919Z,101997.20
2023-05-09T03:37:13.340Z,101995.52
2023-05-09T03:37:43.776Z,101994.11
2023-05-09T03:38:14.191Z,101993.95
2023-05-09T03:38:44.615Z,101994.98
2023-05-09T03:39:15.038Z,101997.83
2023-05-09T03:39:45.467Z,101995.17
2023-05-09T03:40:15.890Z,101994.52
2023-05-09T03:40:46.320Z,101992.98
2023-05-09T03:41:16.744Z,101993.19
2023-05-09T03:41:47.161Z,101992.70
2023-05-09T03:42:17.584Z,101992.05
2023-05-09T03:42:48.011Z,101994.33
2023-05-09T03:43:18.438Z,101995.22
2023-05-09T03:43:48.854Z,101994.38
2023-05-09T03:44:19.289Z,101995.57
2023-05-09T03:44:49.764Z,101992.02
2023-05-09T03:45:20.136Z,101992.18
2023-05-09T03:45:50.573Z,101992.50
2023-05-09T03:46:21.003Z,101995.34
2023-05-09T03:46:51.433Z,101996.73
2023-05-09T03:47:21.843Z,101993.89
2023-05-09T03:47:52.283Z,101997.70
2023-05-09T03:48:22.815Z,101992.45
2023-05-09T03:48:53.194Z,101996.15
2023-05-09T03:49:23.621Z,101995.24
2023-05-09T03:49:54.051Z,101993.86
2023-05-09T03:50:24.478Z,101993.20
2023-05-09T03:50:54.928Z,101991.02
2023-05-09T03:51:25.360Z,101989.38
2023-05-09T03:51:55.794Z,101987.25
2023-05-09T03:52:26.202Z,101991.15
2023-05-09T03:52:56.620Z,101988.33
2023-05-09T03:53:27.054Z,101989.34
2023-05-09T03:53:57.488Z,101988.48
2023-05-09T03:54:27.911Z,101989.95
2023-05-09T03:54:58.336Z,101986.94
2023-05-09T03:55:28.812Z,101987.95
2023-05-09T03:55:59.236Z,101984.24
2023-05-09T03:56:29.663Z,101984.09
2023-05-09T03:57:00.104Z,101989.59
2023-05-09T03:57:30.498Z,101989.41
2023-05-09T03:58:00.922Z,101985.84
2023-05-09T03:58:31.347Z,101986.11
2023-05-09T03:59:01.774Z,101983.78
2023-05-09T03:59:32.197Z,101987.64
2023-05-09T04:00:02.632Z,101986.46
2023-05-09T04:00:33.059Z,101986.32
2023-05-09T04:01:03.487Z,101986.53
2023-05-09T04:01:33.961Z,101987.67
2023-05-09T04:02:04.391Z,101988.73
2023-05-09T04:02:34.877Z,101987.05
2023-05-09T04:03:05.383Z,101992.30
2023-05-09T04:03:35.981Z,101991.77
2023-05-09T04:04:06.476Z,101988.38
2023-05-09T04:04:36.923Z,101988.08
2023-05-09T04:05:07.358Z,101984.53
2023-05-09T04:05:37.785Z,101988.42
2023-05-09T04:06:08.202Z,101990.10
2023-05-09T04:06:38.623Z,101992.45
2023-05-09T04:07:09.044Z,101990.91
2023-05-09T04:07:39.462Z,101989.55
2023-05-09T04:08:09.886Z,101991.23
2023-05-09T04:08:40.308Z,101990.42
2023-05-09T04:09:10.735Z,101992.81
2023-05-09T04:09:41.161Z,101989.33
2023-05-09T04:10:11.597Z,101991.01
2023-05-09T04:10:42.013Z,101987.98
2023-05-09T04:11:12.437Z,101988.62
2023-05-09T04:11:42.875Z,101987.92
2023-05-09T04:12:13.291Z,101989.48
2023-05-09T04:12:43.755Z,101987.34
2023-05-09T04:13:14.177Z,101991.22
2023-05-09T04:13:44.596Z,101992.03
2023-05-09T04:14:15.007Z,101990.84
2023-05-09T04:14:48.182Z,101988.88
2023-05-09T04:15:19.338Z,101986.57
2023-05-09T04:15:49.779Z,101986.23
2023-05-09T04:16:20.212Z,101985.03
2023-05-09T04:16:50.677Z,101990.72
2023-05-09T04:17:21.073Z,101989.66
2023-05-09T04:17:51.518Z,101987.80
2023-05-09T04:18:21.913Z,101987.48
2023-05-09T04:18:52.459Z,101989.36
2023-05-09T04:19:22.874Z,101990.38
2023-05-09T04:19:53.311Z,101990.34
2023-05-09T04:20:23.754Z,101990.98
2023-05-09T04:20:54.166Z,101987.61
2023-05-09T04:21:24.624Z,101987.14
2023-05-09T04:21:55.060Z,101987.12
2023-05-09T04:22:25.491Z,101988.80
2023-05-09T04:22:55.909Z,101986.58
2023-05-09T04:23:26.347Z,101987.10
2023-05-09T04:23:56.782Z,101990.01
2023-05-09T04:24:27.212Z,101988.02
2023-05-09T04:24:57.638Z,101985.53
2023-05-09T04:25:28.054Z,101987.34
2023-05-09T04:25:58.479Z,101990.16
2023-05-09T04:26:28.905Z,101988.84
2023-05-09T04:26:59.325Z,101988.48
2023-05-09T04:27:29.758Z,101989.28
2023-05-09T04:28:00.184Z,101987.47
2023-05-09T04:28:30.615Z,101988.09
2023-05-09T04:29:01.044Z,101990.09
2023-05-09T04:29:31.474Z,101988.05
2023-05-09T04:30:01.975Z,101991.47
2023-05-09T04:30:32.444Z,101987.08
2023-05-09T04:31:02.889Z,101987.92
2023-05-09T04:31:33.383Z,101989.61
2023-05-09T04:32:03.873Z,101990.33
2023-05-09T04:32:34.286Z,101989.31
2023-05-09T04:33:04.707Z,101989.12
2023-05-09T04:33:35.111Z,101991.30
2023-05-09T04:34:05.699Z,101994.88
2023-05-09T04:34:36.084Z,101990.16
2023-05-09T04:35:06.508Z,101993.20
2023-05-09T04:35:36.971Z,101989.78
2023-05-09T04:36:07.395Z,101987.25
2023-05-09T04:36:37.818Z,101986.11
2023-05-09T04:37:08.341Z,101993.37
2023-05-09T04:37:38.703Z,101994.38
2023-05-09T04:38:09.125Z,101987.64
2023-05-09T04:38:39.557Z,101990.67
2023-05-09T04:39:09.993Z,101990.16
2023-05-09T04:39:40.444Z,101994.84
2023-05-09T04:40:10.865Z,101993.36
2023-05-09T04:40:41.293Z,101986.80
2023-05-09T04:41:11.714Z,101988.98
2023-05-09T04:41:42.143Z,101988.33
2023-05-09T04:42:12.564Z,101989.00
2023-05-09T04:42:42.986Z,101987.13
2023-05-09T04:43:13.452Z,101983.78
2023-05-09T04:43:43.933Z,101987.48
2023-05-09T04:44:14.361Z,101992.31
2023-05-09T04:44:44.782Z,101989.11
2023-05-09T04:45:15.444Z,101992.35
2023-05-09T04:45:45.921Z,101991.17
2023-05-09T04:46:16.365Z,101987.98
2023-05-09T04:46:46.803Z,101989.34
2023-05-09T04:47:17.231Z,101989.48
2023-05-09T04:47:47.700Z,101991.22
2023-05-09T04:48:18.132Z,101986.97
2023-05-09T04:48:48.577Z,101988.50
2023-05-09T04:49:19.123Z,101981.09
2023-05-09T04:49:49.512Z,101988.33
2023-05-09T04:50:19.947Z,101984.77
2023-05-09T04:50:50.357Z,101984.96
2023-05-09T04:51:20.791Z,101989.66
2023-05-09T04:51:51.211Z,101988.16
2023-05-09T04:52:21.639Z,101989.48
2023-05-09T04:52:52.124Z,101987.12
2023-05-09T04:53:22.568Z,101987.66
2023-05-09T04:53:52.988Z,101985.95
2023-05-09T04:54:23.442Z,101982.75
2023-05-09T04:54:53.865Z,101985.11
2023-05-09T04:55:24.291Z,101984.27
2023-05-09T04:55:54.758Z,101982.43
2023-05-09T04:56:25.189Z,101982.59
2023-05-09T04:57:03.228Z,101981.41
2023-05-09T04:57:30.956Z,101981.27
2023-05-09T04:58:01.400Z,101979.08
2023-05-09T04:58:31.831Z,101978.57
2023-05-09T04:59:02.275Z,101981.75
2023-05-09T04:59:32.686Z,101981.92
2023-05-09T05:00:03.114Z,101982.77
2023-05-09T05:00:33.527Z,101984.30
2023-05-09T05:01:03.954Z,101980.59
2023-05-09T05:01:34.411Z,101982.74
2023-05-09T05:02:04.909Z,101979.69
2023-05-09T05:02:35.396Z,101982.23
2023-05-09T05:03:05.892Z,101983.55
2023-05-09T05:03:36.327Z,101982.74
2023-05-09T05:04:06.751Z,101981.06
2023-05-09T05:04:37.345Z,101983.41
2023-05-09T05:05:12.054Z,101981.03
2023-05-09T05:05:42.957Z,101979.02
2023-05-09T05:06:13.377Z,101977.98
2023-05-09T05:06:43.806Z,101982.00
2023-05-09T05:07:14.246Z,101982.19
2023-05-09T05:07:44.689Z,101981.01
2023-05-09T05:08:15.088Z,101979.99
2023-05-09T05:08:45.516Z,101980.84
2023-05-09T05:09:15.936Z,101980.34
2023-05-09T05:09:46.369Z,101983.03
2023-05-09T05:10:16.822Z,101981.01
2023-05-09T05:10:47.233Z,101983.02
2023-05-09T05:11:17.660Z,101980.98
2023-05-09T05:11:58.385Z,101978.95
2023-05-09T05:12:23.420Z,101985.20
2023-05-09T05:12:53.883Z,101986.22
2023-05-09T05:13:24.348Z,101981.67
2023-05-09T05:13:54.726Z,101984.54
2023-05-09T05:14:25.164Z,101982.99
2023-05-09T05:14:55.573Z,101986.69
2023-05-09T05:15:25.994Z,101980.11
2023-05-09T05:15:56.468Z,101987.20
2023-05-09T05:16:26.954Z,101986.68
2023-05-09T05:16:57.332Z,101984.15
2023-05-09T05:17:27.853Z,101985.50
2023-05-09T05:17:58.235Z,101983.67
2023-05-09T05:18:28.656Z,101988.16
2023-05-09T05:18:59.074Z,101984.47
2023-05-09T05:19:29.499Z,101982.58
2023-05-09T05:20:00.053Z,101985.27
2023-05-09T05:20:30.408Z,101983.58
2023-05-09T05:21:00.838Z,101984.77
2023-05-09T05:21:31.261Z,101983.77
2023-05-09T05:22:01.688Z,101981.77
2023-05-09T05:22:32.908Z,101981.73
2023-05-09T05:23:03.324Z,101977.70
2023-05-09T05:23:33.745Z,101975.03
2023-05-09T05:24:04.171Z,101976.88
2023-05-09T05:24:34.611Z,101975.74
2023-05-09T05:25:05.039Z,101980.11
2023-05-09T05:25:35.472Z,101980.12
2023-05-09T05:26:05.880Z,101979.44
2023-05-09T05:26:36.308Z,101982.12
2023-05-09T05:27:06.733Z,101981.43
2023-05-09T05:27:37.179Z,101978.86
2023-05-09T05:28:07.611Z,101978.20
2023-05-09T05:28:38.027Z,101979.05
2023-05-09T05:29:08.453Z,101976.19
2023-05-09T05:29:38.875Z,101975.00
2023-05-09T05:30:09.297Z,101975.00
2023-05-09T05:30:39.719Z,101970.45
2023-05-09T05:31:10.184Z,101971.80
2023-05-09T05:31:40.692Z,101968.92
2023-05-09T05:32:11.082Z,101968.21
2023-05-09T05:32:41.506Z,101970.40
2023-05-09T05:33:11.961Z,101968.08
2023-05-09T05:33:42.373Z,101971.08
2023-05-09T05:34:12.837Z,101967.69
2023-05-09T05:34:43.229Z,101968.73
2023-05-09T05:35:14.160Z,101966.91
2023-05-09T05:35:44.646Z,101969.27
2023-05-09T05:36:15.111Z,101966.23
2023-05-09T05:36:45.559Z,101966.88
2023-05-09T05:37:15.997Z,101967.20
2023-05-09T05:37:48.901Z,101970.23
2023-05-09T05:38:19.505Z,101963.32
2023-05-09T05:38:49.928Z,101965.80
2023-05-09T05:39:20.367Z,101962.45
2023-05-09T05:39:50.831Z,101966.14
2023-05-09T05:40:21.255Z,101964.61
2023-05-09T05:40:51.679Z,101965.62
2023-05-09T05:41:22.115Z,101962.95
2023-05-09T05:41:52.573Z,101962.57
2023-05-09T05:42:23.019Z,101955.01
2023-05-09T05:42:53.457Z,101957.02
2023-05-09T05:43:23.894Z,101961.72
2023-05-09T05:43:54.671Z,101956.01
2023-05-09T05:44:25.078Z,101957.01
2023-05-09T05:44:55.562Z,101953.82
2023-05-09T05:45:26.056Z,101957.15
2023-05-09T05:45:56.538Z,101959.16
2023-05-09T05:46:27.053Z,101956.12
2023-05-09T05:46:57.445Z,101958.99
2023-05-09T05:47:27.906Z,101962.32
2023-05-09T05:47:58.815Z,101956.42